createdAt,value
2023-08-22T00:01:28.215Z,17.13
2023-08-22T00:03:54.796Z,16.98
2023-08-22T00:06:21.229Z,17.04
2023-08-22T00:08:47.617Z,17.09
2023-08-22T00:11:14.003Z,16.98
2023-08-22T00:13:40.350Z,16.89
2023-08-22T00:16:06.800Z,16.47
2023-08-22T00:18:33.200Z,16.46
2023-08-22T00:20:59.569Z,16.58
2023-08-22T00:23:25.948Z,16.91
2023-08-22T00:25:52.372Z,16.77
2023-08-22T00:28:18.726Z,16.70
2023-08-22T00:30:45.160Z,16.73
2023-08-22T00:33:11.609Z,16.81
2023-08-22T00:35:37.987Z,16.73
2023-08-22T00:38:04.439Z,16.72
2023-08-22T00:40:30.867Z,16.77
2023-08-22T00:42:57.859Z,16.85
2023-08-22T00:45:24.301Z,16.86
2023-08-22T00:47:51.258Z,16.84
2023-08-22T00:50:17.848Z,16.77
2023-08-22T00:52:44.220Z,16.73
2023-08-22T00:55:10.757Z,16.65
2023-08-22T00:57:38.221Z,16.50
2023-08-22T01:00:05.565Z,16.36
2023-08-22T01:02:32.821Z,16.48
2023-08-22T01:04:59.765Z,16.66
2023-08-22T01:07:38.252Z,16.72
2023-08-22T01:10:22.155Z,16.61
2023-08-22T01:12:52.759Z,16.65
2023-08-22T01:15:29.697Z,16.71
2023-08-22T01:17:58.509Z,16.84
2023-08-22T01:20:26.026Z,16.86
2023-08-22T01:22:52.554Z,16.90
2023-08-22T01:25:18.959Z,16.89
2023-08-22T01:27:56.108Z,16.69
2023-08-22T01:30:42.808Z,16.67
2023-08-22T01:33:14.264Z,16.65
2023-08-22T01:35:44.596Z,16.72
2023-08-22T01:38:11.899Z,16.78
2023-08-22T01:40:38.901Z,16.79
2023-08-22T01:43:05.487Z,16.74
2023-08-22T01:45:31.880Z,16.64
2023-08-22T01:47:58.253Z,16.51
2023-08-22T01:50:24.642Z,16.48
2023-08-22T01:52:51.001Z,16.57
2023-08-22T01:55:17.530Z,16.48
2023-08-22T01:57:43.869Z,16.37
2023-08-22T02:00:10.727Z,16.44
2023-08-22T02:02:37.361Z,16.39
2023-08-22T02:05:04.244Z,16.35
2023-08-22T02:07:33.137Z,16.26
2023-08-22T02:09:59.533Z,16.17
2023-08-22T02:12:26.054Z,16.23
2023-08-22T02:14:52.497Z,16.31
2023-08-22T02:17:19.047Z,16.36
2023-08-22T02:19:45.399Z,16.33
2023-08-22T02:22:11.928Z,16.26
2023-08-22T02:24:38.270Z,16.18
2023-08-22T02:27:04.698Z,16.17
2023-08-22T02:29:31.721Z,16.15
2023-08-22T02:31:58.209Z,16.04
2023-08-22T02:34:26.117Z,16.10
2023-08-22T02:36:52.511Z,16.25
2023-08-22T02:39:18.959Z,16.19
2023-08-22T02:41:45.328Z,16.21
2023-08-22T02:44:11.694Z,16.09
2023-08-22T02:46:38.050Z,16.01
2023-08-22T02:49:04.430Z,16.09
2023-08-22T02:51:30.892Z,16.22
2023-08-22T02:53:57.239Z,16.21
2023-08-22T02:56:23.610Z,16.23
2023-08-22T02:58:49.997Z,16.39
2023-08-22T03:01:16.439Z,16.57
2023-08-22T03:03:42.838Z,16.46
2023-08-22T03:06:09.192Z,16.26
2023-08-22T03:08:35.599Z,16.42
2023-08-22T03:11:02.316Z,16.56
2023-08-22T03:13:29.288Z,16.47
2023-08-22T03:15:56.076Z,16.38
2023-08-22T03:18:22.833Z,16.39
2023-08-22T03:20:49.269Z,16.38
2023-08-22T03:23:15.605Z,16.26
2023-08-22T03:25:41.982Z,16.20
2023-08-22T03:28:08.343Z,16.04
2023-08-22T03:30:34.712Z,15.86
2023-08-22T03:33:01.109Z,15.98
2023-08-22T03:35:27.536Z,16.09
2023-08-22T03:37:53.883Z,16.19
2023-08-22T03:40:20.261Z,16.37
2023-08-22T03:42:46.669Z,16.39
2023-08-22T03:45:13.022Z,16.46
2023-08-22T03:47:39.745Z,16.57
2023-08-22T03:50:06.786Z,16.55
2023-08-22T03:52:33.181Z,16.55
2023-08-22T03:54:59.643Z,16.70
2023-08-22T03:57:26.005Z,16.68
2023-08-22T03:59:52.392Z,16.63
2023-08-22T04:02:19.744Z,16.49
2023-08-22T04:04:46.157Z,16.35
2023-08-22T04:07:12.512Z,16.46
2023-08-22T04:09:38.919Z,16.54
2023-08-22T04:12:05.480Z,16.56
2023-08-22T04:14:31.864Z,16.41
2023-08-22T04:16:58.305Z,16.43
2023-08-22T04:19:24.764Z,16.44
2023-08-22T04:21:51.174Z,16.53
2023-08-22T04:24:17.557Z,16.52
2023-08-22T04:26:44.374Z,16.57
2023-08-22T04:29:11.371Z,16.70
2023-08-22T04:31:37.720Z,16.67
2023-08-22T04:34:04.134Z,16.55
2023-08-22T04:36:30.563Z,16.55
2023-08-22T04:38:56.959Z,16.66
2023-08-22T04:41:23.334Z,16.69
2023-08-22T04:43:49.699Z,16.75
2023-08-22T04:46:16.938Z,16.80
2023-08-22T04:48:43.532Z,16.78
2023-08-22T04:51:09.893Z,16.77
2023-08-22T04:53:36.283Z,16.86
2023-08-22T04:56:02.629Z,16.91
2023-08-22T04:58:29.035Z,16.94
2023-08-22T05:00:55.381Z,16.88
2023-08-22T05:03:21.771Z,17.00
2023-08-22T05:05:48.215Z,17.09
2023-08-22T05:08:14.674Z,17.17
2023-08-22T05:10:41.044Z,17.15
2023-08-22T05:13:07.391Z,17.29
2023-08-22T05:15:34.217Z,17.32
2023-08-22T05:18:01.653Z,17.30
2023-08-22T05:20:28.153Z,17.28
2023-08-22T05:22:54.539Z,17.31
2023-08-22T05:25:20.976Z,17.40
2023-08-22T05:27:47.350Z,17.25
2023-08-22T05:30:13.784Z,17.39
2023-08-22T05:32:40.179Z,17.37
2023-08-22T05:35:07.238Z,17.34
2023-08-22T05:37:33.586Z,17.38
2023-08-22T05:39:59.964Z,17.39
2023-08-22T05:42:26.455Z,17.27
2023-08-22T05:44:52.846Z,17.53
2023-08-22T05:47:19.228Z,17.69
2023-08-22T05:49:45.674Z,17.93
2023-08-22T05:52:12.067Z,18.04
2023-08-22T05:54:38.430Z,18.15
2023-08-22T05:57:04.894Z,18.23
2023-08-22T05:59:31.246Z,18.24
2023-08-22T06:01:58.902Z,18.24
2023-08-22T06:04:25.668Z,18.31
2023-08-22T06:06:52.076Z,18.28
2023-08-22T06:09:18.573Z,18.22
2023-08-22T06:11:44.918Z,18.20
2023-08-22T06:14:11.312Z,18.15
2023-08-22T06:16:37.675Z,18.27
2023-08-22T06:19:04.046Z,18.56
2023-08-22T06:21:30.478Z,19.01
2023-08-22T06:23:56.886Z,19.75
2023-08-22T06:26:23.307Z,20.31
2023-08-22T06:28:49.658Z,20.77
2023-08-22T06:31:16.081Z,20.81
2023-08-22T06:33:42.500Z,21.14
2023-08-22T06:36:08.941Z,21.45
2023-08-22T06:38:35.343Z,21.58
2023-08-22T06:41:08.281Z,21.56
2023-08-22T06:43:35.153Z,21.51
2023-08-22T06:46:01.746Z,21.65
2023-08-22T06:48:40.918Z,21.66
2023-08-22T06:51:07.950Z,21.78
2023-08-22T06:53:34.388Z,21.83
2023-08-22T06:56:00.770Z,21.98
2023-08-22T06:58:27.150Z,21.95
2023-08-22T07:00:53.595Z,22.11
2023-08-22T07:03:20.163Z,22.29
2023-08-22T07:05:51.034Z,22.22
2023-08-22T07:08:17.392Z,22.21
2023-08-22T07:10:43.766Z,22.26
2023-08-22T07:13:10.149Z,22.47
2023-08-22T07:15:36.508Z,22.54
2023-08-22T07:18:03.013Z,22.62
2023-08-22T07:20:29.410Z,22.81
2023-08-22T07:22:55.786Z,22.87
2023-08-22T07:25:22.139Z,22.97
2023-08-22T07:27:48.496Z,23.31
2023-08-22T07:30:14.935Z,23.58
2023-08-22T07:32:41.580Z,23.62
2023-08-22T07:35:08.629Z,24.00
2023-08-22T07:37:35.156Z,24.42
2023-08-22T07:40:01.517Z,24.88
2023-08-22T07:42:27.884Z,25.30
2023-08-22T07:44:54.315Z,25.52
2023-08-22T07:47:20.676Z,25.71
2023-08-22T07:49:47.010Z,25.40
2023-08-22T07:52:13.377Z,25.63
2023-08-22T07:54:39.734Z,26.35
2023-08-22T07:57:17.893Z,26.75
2023-08-22T07:59:45.127Z,26.35
2023-08-22T08:02:11.596Z,26.46
2023-08-22T08:04:38.029Z,26.51
2023-08-22T08:07:04.534Z,26.34
2023-08-22T08:09:35.559Z,26.57
2023-08-22T08:12:02.399Z,26.43
2023-08-22T08:14:28.765Z,26.69
2023-08-22T08:16:55.206Z,26.72
2023-08-22T08:19:23.066Z,26.66
2023-08-22T08:21:50.700Z,26.64
2023-08-22T08:24:17.034Z,26.66
2023-08-22T08:26:43.389Z,26.69
2023-08-22T08:29:09.758Z,26.69
2023-08-22T08:31:36.112Z,26.67
2023-08-22T08:34:05.440Z,26.06
2023-08-22T08:36:32.092Z,24.38
2023-08-22T08:38:58.437Z,24.84
2023-08-22T08:41:25.048Z,25.38
2023-08-22T08:43:51.837Z,25.42
2023-08-22T08:46:18.653Z,25.11
2023-08-22T08:48:46.509Z,25.26
2023-08-22T08:51:12.964Z,25.61
2023-08-22T08:53:40.891Z,25.63
2023-08-22T08:56:07.501Z,25.36
2023-08-22T08:58:33.894Z,25.00
2023-08-22T09:01:00.638Z,25.05
2023-08-22T09:03:27.082Z,24.24
2023-08-22T09:05:53.420Z,24.15
2023-08-22T09:08:21.633Z,24.55
2023-08-22T09:10:52.337Z,25.07
2023-08-22T09:13:26.189Z,25.36
2023-08-22T09:15:59.145Z,25.18
2023-08-22T09:18:25.603Z,24.80
2023-08-22T09:20:51.962Z,24.50
2023-08-22T09:23:36.551Z,24.70
2023-08-22T09:26:02.889Z,25.33
2023-08-22T09:28:29.356Z,25.53
2023-08-22T09:30:55.712Z,25.55
2023-08-22T09:33:22.150Z,25.37
2023-08-22T09:35:48.522Z,26.09
2023-08-22T09:38:14.986Z,26.06
2023-08-22T09:40:52.940Z,26.31
2023-08-22T09:43:20.442Z,26.43
2023-08-22T09:45:48.660Z,26.43
2023-08-22T09:48:19.857Z,26.45
2023-08-22T09:50:50.457Z,26.80
2023-08-22T09:53:18.742Z,26.83
2023-08-22T09:55:46.050Z,26.35
2023-08-22T09:58:12.786Z,26.01
2023-08-22T10:00:39.396Z,26.26
2023-08-22T10:03:07.264Z,27.00
2023-08-22T10:05:34.538Z,27.47
2023-08-22T10:08:01.059Z,26.84
2023-08-22T10:10:28.261Z,26.76
2023-08-22T10:12:56.189Z,26.92
2023-08-22T10:15:22.776Z,26.25
2023-08-22T10:17:50.371Z,25.86
2023-08-22T10:20:16.921Z,25.28
2023-08-22T10:22:43.420Z,25.35
2023-08-22T10:25:09.949Z,24.91
2023-08-22T10:27:38.441Z,25.34
2023-08-22T10:30:13.936Z,26.03
2023-08-22T10:32:41.369Z,26.72
2023-08-22T10:35:21.648Z,27.26
2023-08-22T10:37:49.814Z,27.25
2023-08-22T10:40:27.925Z,27.32
2023-08-22T10:43:35.988Z,27.54
2023-08-22T10:46:06.180Z,27.81
2023-08-22T10:48:33.773Z,27.76
2023-08-22T10:51:08.059Z,27.16
2023-08-22T10:53:45.379Z,27.41
2023-08-22T10:56:23.138Z,27.43
2023-08-22T10:59:00.404Z,27.49
2023-08-22T11:01:27.474Z,26.11
2023-08-22T11:03:54.409Z,25.30
2023-08-22T11:06:23.913Z,24.98
2023-08-22T11:08:51.418Z,25.75
2023-08-22T11:11:19.904Z,26.36
2023-08-22T11:13:46.454Z,26.85
2023-08-22T11:16:15.892Z,27.50
2023-08-22T11:18:43.564Z,27.36
2023-08-22T11:21:10.586Z,26.83
2023-08-22T11:23:38.540Z,26.14
2023-08-22T11:26:08.499Z,26.11
2023-08-22T11:28:37.119Z,25.63
2023-08-22T11:31:04.886Z,26.00
2023-08-22T11:33:35.704Z,26.29
2023-08-22T11:36:02.120Z,25.68
2023-08-22T11:38:28.510Z,25.92
2023-08-22T11:40:55.017Z,26.68
2023-08-22T11:43:21.391Z,27.21
2023-08-22T11:45:47.781Z,26.90
2023-08-22T11:48:15.433Z,26.78
2023-08-22T11:50:43.046Z,26.71
2023-08-22T11:53:11.971Z,26.84
2023-08-22T11:55:46.607Z,26.28
2023-08-22T11:58:15.902Z,25.77
2023-08-22T12:00:42.983Z,25.87
2023-08-22T12:03:09.389Z,26.14
2023-08-22T12:05:45.154Z,25.84
2023-08-22T12:08:11.500Z,26.24
2023-08-22T12:10:41.475Z,26.32
2023-08-22T12:13:09.070Z,26.67
2023-08-22T12:15:36.242Z,27.49
2023-08-22T12:18:03.245Z,28.00
2023-08-22T12:20:29.656Z,28.11
2023-08-22T12:22:56.023Z,28.09
2023-08-22T12:25:22.419Z,28.09
2023-08-22T12:27:48.766Z,28.35
2023-08-22T12:30:15.192Z,28.25
2023-08-22T12:32:45.700Z,27.88
2023-08-22T12:35:13.261Z,28.01
2023-08-22T12:37:40.577Z,28.11
2023-08-22T12:40:10.007Z,28.26
2023-08-22T12:42:36.357Z,28.21
2023-08-22T12:45:02.822Z,28.42
2023-08-22T12:47:29.188Z,28.75
2023-08-22T12:49:55.539Z,29.27
2023-08-22T12:52:21.960Z,29.47
2023-08-22T12:54:48.356Z,29.52
2023-08-22T12:57:14.727Z,29.29
2023-08-22T12:59:41.095Z,28.99
2023-08-22T13:02:07.575Z,28.40
2023-08-22T13:04:34.201Z,28.69
2023-08-22T13:07:00.629Z,28.58
2023-08-22T13:09:27.044Z,28.81
2023-08-22T13:11:53.431Z,29.00
2023-08-22T13:14:19.819Z,28.47
2023-08-22T13:16:46.280Z,28.43
2023-08-22T13:19:12.664Z,28.11
2023-08-22T13:21:39.029Z,27.97
2023-08-22T13:24:05.676Z,27.62
2023-08-22T13:26:32.045Z,27.52
2023-08-22T13:28:58.405Z,27.46
2023-08-22T13:31:24.839Z,27.90
2023-08-22T13:33:51.243Z,27.60
2023-08-22T13:36:17.719Z,26.85
2023-08-22T13:38:44.096Z,26.99
2023-08-22T13:41:10.434Z,26.51
2023-08-22T13:43:36.800Z,26.69
2023-08-22T13:46:03.203Z,26.97
2023-08-22T13:48:29.600Z,26.82
2023-08-22T13:50:56.000Z,26.87
2023-08-22T13:53:22.430Z,27.08
2023-08-22T13:55:48.881Z,27.25
2023-08-22T13:58:15.258Z,27.02
2023-08-22T14:00:41.627Z,26.62
2023-08-22T14:03:08.043Z,26.88
2023-08-22T14:05:34.444Z,26.79
2023-08-22T14:08:00.877Z,26.57
2023-08-22T14:10:27.356Z,26.23
2023-08-22T14:12:53.895Z,26.13
2023-08-22T14:15:20.282Z,25.75
2023-08-22T14:17:46.899Z,26.00
2023-08-22T14:20:13.420Z,26.19
2023-08-22T14:22:41.648Z,26.46
2023-08-22T14:25:08.399Z,26.95
2023-08-22T14:27:34.768Z,27.03
2023-08-22T14:30:01.133Z,26.98
2023-08-22T14:32:27.510Z,27.22
2023-08-22T14:34:53.914Z,27.24
2023-08-22T14:37:23.566Z,27.41
2023-08-22T14:39:50.414Z,27.08
2023-08-22T14:42:16.788Z,27.03
2023-08-22T14:44:43.176Z,26.94
2023-08-22T14:47:09.523Z,27.13
2023-08-22T14:49:35.985Z,27.46
2023-08-22T14:52:02.345Z,27.40
2023-08-22T14:54:28.734Z,27.52
2023-08-22T14:56:55.113Z,27.69
2023-08-22T14:59:21.468Z,27.87
2023-08-22T15:01:47.863Z,27.52
2023-08-22T15:04:14.295Z,27.48
2023-08-22T15:06:40.678Z,27.25
2023-08-22T15:09:06.999Z,27.04
2023-08-22T15:11:33.336Z,26.68
2023-08-22T15:13:59.668Z,26.56
2023-08-22T15:16:25.998Z,26.33
2023-08-22T15:18:52.313Z,26.40
2023-08-22T15:21:18.659Z,26.61
2023-08-22T15:23:44.991Z,26.86
2023-08-22T15:26:11.400Z,26.93
2023-08-22T15:28:37.769Z,27.01
2023-08-22T15:31:04.138Z,27.39
2023-08-22T15:33:30.602Z,27.21
2023-08-22T15:36:00.274Z,26.60
2023-08-22T15:38:35.674Z,26.13
2023-08-22T15:41:03.404Z,26.09
2023-08-22T15:43:31.307Z,26.04
2023-08-22T15:45:57.657Z,26.01
2023-08-22T15:48:24.082Z,25.79
2023-08-22T15:50:50.442Z,25.83
2023-08-22T15:53:16.853Z,25.82
2023-08-22T15:55:43.213Z,26.22
2023-08-22T15:58:09.592Z,26.81
2023-08-22T16:00:36.009Z,27.25
2023-08-22T16:03:02.470Z,27.29
2023-08-22T16:05:28.900Z,27.21
2023-08-22T16:07:55.293Z,27.01
2023-08-22T16:10:21.785Z,26.56
2023-08-22T16:12:48.149Z,26.23
2023-08-22T16:15:14.505Z,25.97
2023-08-22T16:17:40.873Z,25.58
2023-08-22T16:20:07.959Z,25.57
2023-08-22T16:22:34.333Z,25.35
2023-08-22T16:25:00.693Z,25.22
2023-08-22T16:27:37.000Z,25.32
2023-08-22T16:30:07.455Z,25.27
2023-08-22T16:32:33.895Z,25.18
2023-08-22T16:35:00.256Z,25.28
2023-08-22T16:37:26.621Z,25.25
2023-08-22T16:39:52.970Z,25.26
2023-08-22T16:42:19.362Z,25.35
2023-08-22T16:44:45.711Z,25.45
2023-08-22T16:47:12.099Z,25.43
2023-08-22T16:49:38.451Z,24.69
2023-08-22T16:52:05.148Z,24.90
2023-08-22T16:54:31.492Z,24.92
2023-08-22T16:56:57.958Z,24.86
2023-08-22T16:59:24.345Z,24.99
2023-08-22T17:01:51.045Z,25.00
2023-08-22T17:04:17.450Z,24.88
2023-08-22T17:06:43.828Z,24.93
2023-08-22T17:09:10.176Z,24.70
2023-08-22T17:11:36.588Z,24.67
2023-08-22T17:14:03.006Z,24.52
2023-08-22T17:16:29.471Z,24.53
2023-08-22T17:18:55.948Z,24.53
2023-08-22T17:21:22.574Z,24.54
2023-08-22T17:23:48.969Z,24.39
2023-08-22T17:26:15.328Z,24.32
2023-08-22T17:28:41.727Z,24.25
2023-08-22T17:31:09.200Z,23.99
2023-08-22T17:33:37.285Z,24.04
2023-08-22T17:36:05.453Z,24.02
2023-08-22T17:38:31.942Z,23.98
2023-08-22T17:41:08.599Z,23.76
2023-08-22T17:43:36.175Z,23.67
2023-08-22T17:46:03.365Z,23.43
2023-08-22T17:48:30.356Z,23.29
2023-08-22T17:50:57.930Z,23.29
2023-08-22T17:53:24.960Z,23.18
2023-08-22T17:55:52.116Z,23.16
2023-08-22T17:58:22.621Z,23.11
2023-08-22T18:00:50.026Z,23.01
2023-08-22T18:03:17.011Z,22.96
2023-08-22T18:06:02.556Z,22.74
2023-08-22T18:08:29.445Z,22.68
2023-08-22T18:10:56.782Z,22.59
2023-08-22T18:13:24.413Z,22.52
2023-08-22T18:18:30.889Z,22.27
2023-08-22T18:21:04.914Z,22.09
2023-08-22T18:23:31.374Z,21.97
2023-08-22T18:26:03.066Z,21.78
2023-08-22T18:28:32.317Z,21.63
2023-08-22T18:31:10.743Z,21.49
2023-08-22T18:33:37.508Z,21.42
2023-08-22T18:36:04.029Z,21.32
2023-08-22T18:38:30.435Z,21.27
2023-08-22T18:40:58.344Z,21.23
2023-08-22T18:43:24.739Z,21.11
2023-08-22T18:45:51.130Z,21.01
2023-08-22T18:48:17.518Z,20.94
2023-08-22T18:50:44.456Z,20.85
2023-08-22T18:53:11.984Z,20.73
2023-08-22T18:55:38.336Z,20.69
2023-08-22T18:58:04.760Z,20.61
2023-08-22T19:00:31.142Z,20.44
2023-08-22T19:02:58.309Z,20.36
2023-08-22T19:05:24.954Z,20.32
2023-08-22T19:07:51.316Z,20.25
2023-08-22T19:10:17.670Z,20.17
2023-08-22T19:12:44.051Z,20.15
2023-08-22T19:15:10.621Z,20.05
2023-08-22T19:17:37.070Z,20.00
2023-08-22T19:20:03.695Z,19.97
2023-08-22T19:22:30.106Z,19.79
2023-08-22T19:24:56.531Z,19.59
2023-08-22T19:27:22.900Z,19.56
2023-08-22T19:29:49.416Z,19.54
2023-08-22T19:32:23.854Z,19.46
2023-08-22T19:35:02.098Z,19.38
2023-08-22T19:37:28.434Z,19.32
2023-08-22T19:39:54.805Z,19.32
2023-08-22T19:42:21.182Z,19.29
2023-08-22T19:44:47.540Z,19.25
2023-08-22T19:47:13.910Z,19.25
2023-08-22T19:49:40.268Z,19.10
2023-08-22T19:52:06.662Z,19.11
2023-08-22T19:54:33.029Z,19.07
2023-08-22T19:56:59.415Z,19.03
2023-08-22T19:59:25.789Z,19.06
2023-08-22T20:01:52.158Z,19.00
2023-08-22T20:04:18.544Z,18.89
2023-08-22T20:06:44.920Z,18.90
2023-08-22T20:09:14.847Z,18.91
2023-08-22T20:11:42.539Z,18.93
2023-08-22T20:14:09.797Z,18.83
2023-08-22T20:16:36.732Z,18.86
2023-08-22T20:19:03.377Z,18.80
2023-08-22T20:21:29.859Z,18.78
2023-08-22T20:23:56.456Z,18.79
2023-08-22T20:26:23.437Z,18.70
2023-08-22T20:28:50.223Z,18.63
2023-08-22T20:31:17.414Z,18.60
2023-08-22T20:33:44.445Z,18.51
2023-08-22T20:36:11.244Z,18.55
2023-08-22T20:38:38.370Z,18.57
2023-08-22T20:41:04.762Z,18.48
2023-08-22T20:43:31.123Z,18.45
2023-08-22T20:46:00.656Z,18.18
2023-08-22T20:48:27.111Z,18.12
2023-08-22T20:50:53.528Z,17.95
2023-08-22T20:53:19.907Z,17.75
2023-08-22T20:55:48.690Z,17.66
2023-08-22T20:58:15.029Z,17.52
2023-08-22T21:00:41.429Z,17.42
2023-08-22T21:03:07.828Z,17.47
2023-08-22T21:05:37.443Z,17.48
2023-08-22T21:08:05.049Z,17.39
2023-08-22T21:10:32.065Z,17.23
2023-08-22T21:12:58.475Z,17.36
2023-08-22T21:15:24.862Z,17.45
2023-08-22T21:17:52.010Z,17.53
2023-08-22T21:20:18.414Z,17.57
2023-08-22T21:22:45.260Z,17.55
2023-08-22T21:25:12.057Z,17.54
2023-08-22T21:27:38.429Z,17.53
2023-08-22T21:30:05.291Z,17.58
2023-08-22T21:32:31.779Z,17.51
2023-08-22T21:34:58.250Z,17.44
2023-08-22T21:37:24.607Z,17.39
2023-08-22T21:39:51.102Z,17.43
2023-08-22T21:42:17.481Z,17.36
2023-08-22T21:44:44.209Z,17.31
2023-08-22T21:47:10.892Z,17.28
2023-08-22T21:49:37.238Z,17.16
2023-08-22T21:52:03.834Z,17.11
2023-08-22T21:54:30.184Z,16.96
2023-08-22T21:56:56.587Z,16.95
2023-08-22T21:59:23.051Z,16.89
2023-08-22T22:01:49.533Z,16.91
2023-08-22T22:04:15.902Z,16.85
2023-08-22T22:06:42.279Z,16.93
2023-08-22T22:09:08.667Z,16.84
2023-08-22T22:11:35.021Z,16.77
2023-08-22T22:14:01.417Z,16.66
2023-08-22T22:16:34.596Z,16.62
2023-08-22T22:19:09.849Z,16.64
2023-08-22T22:21:36.314Z,16.61
2023-08-22T22:24:04.839Z,16.62
2023-08-22T22:26:31.171Z,16.59
2023-08-22T22:28:57.540Z,16.57
2023-08-22T22:31:23.932Z,16.55
2023-08-22T22:33:50.315Z,16.44
2023-08-22T22:36:16.682Z,16.47
2023-08-22T22:38:43.044Z,16.48
2023-08-22T22:41:09.467Z,16.37
2023-08-22T22:43:36.030Z,16.36
2023-08-22T22:46:02.767Z,16.38
2023-08-22T22:48:29.275Z,16.32
2023-08-22T22:50:55.959Z,16.35
2023-08-22T22:53:22.457Z,16.35
2023-08-22T22:55:48.840Z,16.39
2023-08-22T22:58:15.257Z,16.24
2023-08-22T23:00:41.695Z,16.30
2023-08-22T23:03:08.211Z,16.21
2023-08-22T23:05:34.741Z,16.22
2023-08-22T23:08:01.145Z,16.17
2023-08-22T23:10:27.552Z,16.14
2023-08-22T23:12:54.522Z,16.07
2023-08-22T23:15:21.027Z,16.07
2023-08-22T23:17:47.894Z,16.08
2023-08-22T23:20:16.040Z,16.06
2023-08-22T23:22:44.110Z,16.10
2023-08-22T23:25:10.714Z,16.01
2023-08-22T23:27:37.669Z,16.00
2023-08-22T23:30:06.656Z,15.89
2023-08-22T23:32:33.444Z,15.74
2023-08-22T23:35:02.297Z,15.74
2023-08-22T23:37:28.698Z,15.78
2023-08-22T23:39:55.824Z,15.84
2023-08-22T23:42:22.248Z,15.81
2023-08-22T23:44:49.624Z,15.71
2023-08-22T23:47:17.402Z,15.67
2023-08-22T23:49:44.463Z,15.79
2023-08-22T23:52:11.331Z,15.78
2023-08-22T23:54:38.000Z,15.76
2023-08-22T23:57:05.400Z,15.70
2023-08-22T23:59:33.260Z,15.61
